Time;durP1;ratioP1;P1;durP2;ratioP2;P2;SDS_P1;SDS_P2;PMS_P1;PMS_P2;Temp;Humidity;BMP_temperature;BMP_pressure;BME280_temperature;BME280_humidity;BME280_pressure;Samples;Min_cycle;Max_cycle;Signal;HPM_P1;HPM_P2
2022/05/27 00:00:21;;;;;;;11.63;3.40;;;11.40;99.90;;;;;;4895149;29;20393;-56
2022/05/27 00:02:50;;;;;;;14.80;3.45;;;11.40;99.90;;;;;;4895133;29;20059;-56
2022/05/27 00:05:19;;;;;;;21.03;2.90;;;11.40;99.90;;;;;;4894164;29;20064;-56
2022/05/27 00:07:47;;;;;;;22.20;2.93;;;11.40;99.90;;;;;;4893746;29;20057;-56
2022/05/27 00:10:15;;;;;;;11.52;2.28;;;11.40;99.90;;;;;;4895060;29;20055;-56
2022/05/27 00:12:42;;;;;;;15.35;2.45;;;11.50;99.90;;;;;;4892823;29;20063;-56
2022/05/27 00:15:10;;;;;;;11.90;2.60;;;11.50;99.90;;;;;;4894839;29;20052;-57
2022/05/27 00:17:38;;;;;;;12.65;2.78;;;11.40;99.90;;;;;;4894937;29;20049;-57
2022/05/27 00:20:07;;;;;;;9.50;2.40;;;11.40;99.90;;;;;;4893986;29;20045;-57
2022/05/27 00:22:35;;;;;;;12.93;3.42;;;11.40;99.90;;;;;;4893673;29;20053;-56
2022/05/27 00:25:03;;;;;;;15.35;2.88;;;11.40;99.90;;;;;;4893425;29;20055;-56
2022/05/27 00:27:31;;;;;;;13.02;2.60;;;11.30;99.90;;;;;;4892120;29;20048;-57
2022/05/27 00:29:58;;;;;;;11.85;2.38;;;11.30;99.90;;;;;;4894805;29;20057;-56
2022/05/27 00:32:29;;;;;;;10.00;2.75;;;11.30;99.90;;;;;;4893647;29;20056;-56
2022/05/27 00:34:57;;;;;;;12.13;2.42;;;11.30;99.90;;;;;;4893937;29;20053;-57
2022/05/27 00:37:27;;;;;;;13.55;3.70;;;11.30;99.90;;;;;;4895040;29;20057;-56
2022/05/27 00:39:56;;;;;;;14.30;3.40;;;11.30;99.90;;;;;;4893830;29;20059;-57
2022/05/27 00:42:24;;;;;;;19.08;3.00;;;11.30;99.90;;;;;;4894305;29;20053;-56
2022/05/27 00:44:52;;;;;;;15.48;2.60;;;11.30;99.90;;;;;;4876286;29;20045;-56
2022/05/27 00:47:22;;;;;;;11.60;2.35;;;11.30;99.90;;;;;;4876210;29;20049;-57
2022/05/27 00:49:55;;;;;;;11.77;1.98;;;11.30;99.90;;;;;;4892398;29;20060;-56
2022/05/27 00:52:27;;;;;;;13.68;3.50;;;11.30;99.90;;;;;;4893543;29;20048;-56
2022/05/27 00:54:55;;;;;;;19.67;3.38;;;11.30;99.90;;;;;;4894662;29;20049;-57
2022/05/27 00:57:33;;;;;;;14.75;3.25;;;11.30;99.90;;;;;;4894562;29;20064;-57
2022/05/27 01:00:09;;;;;;;10.75;2.88;;;11.30;99.90;;;;;;4876120;29;20052;-56
2022/05/27 01:02:37;;;;;;;13.77;2.63;;;11.30;99.90;;;;;;4889731;29;20064;-56
2022/05/27 01:05:07;;;;;;;9.10;1.80;;;11.30;99.90;;;;;;4891430;29;20072;-57
2022/05/27 01:07:35;;;;;;;10.30;2.15;;;11.30;99.90;;;;;;4893070;29;20060;-56
2022/05/27 01:10:06;;;;;;;14.68;2.95;;;11.30;99.90;;;;;;4894494;29;20056;-56
2022/05/27 01:12:56;;;;;;;14.60;1.95;;;11.40;99.90;;;;;;4893944;29;20531;-56
2022/05/27 01:15:42;;;;;;;19.48;1.98;;;11.30;99.90;;;;;;4874639;29;20060;-57
2022/05/27 01:20:18;;;;;;;9.98;2.08;;;11.30;99.90;;;;;;4880375;29;20040;-56
2022/05/27 01:21:35;;;;;;;17.88;2.92;;;11.30;99.90;;;;;;4894538;29;20048;-57
2022/05/27 01:24:42;;;;;;;22.13;4.97;;;11.30;99.90;;;;;;4896513;29;20399;-56
2022/05/27 01:27:35;;;;;;;14.55;1.90;;;11.30;99.90;;;;;;4897922;29;20048;-56
2022/05/27 01:30:27;;;;;;;11.15;2.30;;;11.30;99.90;;;;;;4878748;29;20056;-56
2022/05/27 01:33:15;;;;;;;15.35;2.10;;;11.30;99.90;;;;;;4880687;29;20053;-56
2022/05/27 01:35:59;;;;;;;15.15;2.65;;;11.30;99.90;;;;;;4880589;29;20057;-56
2022/05/27 01:38:40;;;;;;;14.70;1.85;;;11.30;99.90;;;;;;4887186;29;20052;-56
2022/05/27 01:41:28;;;;;;;13.77;3.13;;;11.20;99.90;;;;;;4899202;29;20067;-57
2022/05/27 01:44:00;;;;;;;12.68;2.13;;;11.20;99.90;;;;;;4894027;29;20057;-56
2022/05/27 01:46:56;;;;;;;13.52;2.20;;;11.20;99.90;;;;;;4890008;29;20520;-56
2022/05/27 01:49:36;;;;;;;16.98;2.42;;;11.20;99.90;;;;;;4897295;29;20052;-55
2022/05/27 01:52:12;;;;;;;15.63;2.05;;;11.20;99.90;;;;;;4898144;29;20412;-55
2022/05/27 01:55:14;;;;;;;12.98;2.15;;;11.10;99.90;;;;;;4899018;29;20049;-55
2022/05/27 01:58:01;;;;;;;12.90;2.08;;;11.10;99.90;;;;;;4890156;29;20056;-55
2022/05/27 02:00:30;;;;;;;17.60;1.85;;;11.00;99.90;;;;;;4882333;29;20513;-55
2022/05/27 02:03:01;;;;;;;11.38;2.25;;;11.00;99.90;;;;;;4898926;29;20072;-55
2022/05/27 02:05:49;;;;;;;12.93;2.50;;;11.00;99.90;;;;;;4898715;29;20113;-55
2022/05/27 02:08:24;;;;;;;22.48;2.95;;;11.00;99.90;;;;;;4898737;29;20057;-55
2022/05/27 02:11:06;;;;;;;14.75;2.50;;;11.00;99.90;;;;;;4898837;29;20044;-56
2022/05/27 02:13:47;;;;;;;21.00;2.15;;;11.00;99.90;;;;;;4898590;29;20520;-56
2022/05/27 02:16:45;;;;;;;11.60;1.60;;;10.90;99.90;;;;;;4899011;29;20048;-56
2022/05/27 02:19:21;;;;;;;11.65;2.13;;;10.90;99.90;;;;;;4898773;29;20055;-56
2022/05/27 02:21:57;;;;;;;9.52;1.83;;;10.90;99.90;;;;;;4898425;29;20049;-56
2022/05/27 02:24:37;;;;;;;12.90;2.05;;;10.80;99.90;;;;;;4898688;29;20055;-56
2022/05/27 02:27:09;;;;;;;14.45;2.28;;;10.80;99.90;;;;;;4898535;29;20489;-56
2022/05/27 02:29:38;;;;;;;11.07;2.45;;;10.80;99.90;;;;;;4897244;29;20052;-56
2022/05/27 02:32:28;;;;;;;16.67;2.47;;;10.70;99.90;;;;;;4898295;29;20056;-56
2022/05/27 02:35:11;;;;;;;15.50;3.13;;;10.70;99.90;;;;;;4896556;29;20509;-56
2022/05/27 02:37:43;;;;;;;16.42;2.00;;;10.60;99.90;;;;;;4898481;29;20477;-56
2022/05/27 02:40:18;;;;;;;14.43;3.20;;;10.60;99.90;;;;;;4898372;29;20045;-56
2022/05/27 02:42:57;;;;;;;12.15;2.10;;;10.50;99.90;;;;;;4898327;29;20059;-56
2022/05/27 02:45:44;;;;;;;16.67;2.57;;;10.50;99.90;;;;;;4898121;29;20055;-56
2022/05/27 02:48:29;;;;;;;12.30;1.52;;;10.40;99.90;;;;;;4898205;29;20299;-56
2022/05/27 02:51:04;;;;;;;20.85;2.97;;;10.40;99.90;;;;;;4898085;29;20052;-56
2022/05/27 02:53:43;;;;;;;25.20;3.22;;;10.40;99.90;;;;;;4898112;29;20139;-56
2022/05/27 02:56:25;;;;;;;11.23;2.60;;;10.40;99.90;;;;;;4897886;29;20056;-56
2022/05/27 02:58:54;;;;;;;9.88;1.63;;;10.40;99.90;;;;;;4898046;29;20049;-56
2022/05/27 03:01:22;;;;;;;14.32;3.17;;;10.40;99.90;;;;;;4897990;29;20064;-56
2022/05/27 03:03:50;;;;;;;16.95;2.97;;;10.50;99.90;;;;;;4898147;29;20505;-56
2022/05/27 03:06:36;;;;;;;17.08;3.67;;;10.50;99.90;;;;;;4897856;29;20477;-57
2022/05/27 03:09:23;;;;;;;17.55;4.63;;;10.50;99.90;;;;;;4896619;29;20059;-56
2022/05/27 03:12:26;;;;;;;13.20;2.50;;;10.50;99.90;;;;;;4897925;29;20041;-56
2022/05/27 03:15:02;;;;;;;16.90;3.05;;;10.50;99.90;;;;;;4882752;29;20217;-56
2022/05/27 03:17:35;;;;;;;17.63;2.20;;;10.50;99.90;;;;;;4897542;29;20512;-56
2022/05/27 03:20:32;;;;;;;12.65;2.55;;;10.50;99.90;;;;;;4897524;29;20060;-56
2022/05/27 03:23:15;;;;;;;12.60;2.42;;;10.50;99.90;;;;;;4897534;29;20049;-57
2022/05/27 03:25:54;;;;;;;11.48;3.17;;;10.50;99.90;;;;;;4896042;29;20189;-56
2022/05/27 03:28:48;;;;;;;17.02;2.50;;;10.50;99.90;;;;;;4897633;29;20055;-56
2022/05/27 03:31:27;;;;;;;11.90;2.03;;;10.40;99.90;;;;;;4897410;29;20059;-56
2022/05/27 03:34:23;;;;;;;19.15;1.98;;;10.40;99.90;;;;;;4897639;29;20048;-56
2022/05/27 03:37:11;;;;;;;14.63;2.72;;;10.40;99.90;;;;;;4897312;29;20053;-55
2022/05/27 03:39:52;;;;;;;11.85;2.00;;;10.40;99.90;;;;;;4896057;29;20488;-55
2022/05/27 03:42:24;;;;;;;26.70;2.50;;;10.40;99.90;;;;;;4897284;29;20044;-56
2022/05/27 03:45:01;;;;;;;12.48;2.35;;;10.40;99.90;;;;;;4896305;29;20051;-56
2022/05/27 03:47:29;;;;;;;11.98;2.45;;;10.40;99.90;;;;;;4896143;29;20044;-57
2022/05/27 03:49:56;;;;;;;12.95;2.13;;;10.30;99.90;;;;;;4896960;29;20059;-57
2022/05/27 03:52:27;;;;;;;12.73;1.75;;;10.30;99.90;;;;;;4897181;29;20057;-56
2022/05/27 03:54:55;;;;;;;18.27;2.45;;;10.30;99.90;;;;;;4897062;29;20053;-57
2022/05/27 03:57:23;;;;;;;9.85;2.10;;;10.30;99.90;;;;;;4897108;29;20052;-57
2022/05/27 03:59:51;;;;;;;15.13;2.50;;;10.30;99.90;;;;;;4896980;29;20370;-56
2022/05/27 04:02:18;;;;;;;13.75;3.15;;;10.30;99.90;;;;;;4897097;29;20037;-57
2022/05/27 04:04:46;;;;;;;12.98;2.55;;;10.30;99.90;;;;;;4896954;29;20053;-57
2022/05/27 04:07:14;;;;;;;10.80;2.22;;;10.30;99.90;;;;;;4895778;29;20064;-57
2022/05/27 04:09:42;;;;;;;9.88;2.13;;;10.30;99.90;;;;;;4896746;29;20065;-56
2022/05/27 04:12:10;;;;;;;13.32;1.70;;;10.40;99.90;;;;;;4896791;29;20049;-56
2022/05/27 04:14:37;;;;;;;19.80;2.63;;;10.40;99.90;;;;;;4896691;29;20489;-55
2022/05/27 04:19:51;;;;;;;10.80;1.88;;;10.40;99.90;;;;;;4896694;29;20059;-56
2022/05/27 04:22:19;;;;;;;14.75;2.47;;;10.40;99.90;;;;;;4896491;29;20609;-56
2022/05/27 04:24:47;;;;;;;16.70;2.47;;;10.30;99.90;;;;;;4896480;29;20452;-56
2022/05/27 04:27:16;;;;;;;15.65;1.77;;;10.30;99.90;;;;;;4895349;29;20036;-56
2022/05/27 04:29:48;;;;;;;16.08;2.42;;;10.20;99.90;;;;;;4896479;29;20048;-55
2022/05/27 04:32:17;;;;;;;11.65;2.08;;;10.10;99.90;;;;;;4895243;29;20060;-56
2022/05/27 04:34:45;;;;;;;16.85;1.85;;;10.00;99.90;;;;;;4896757;29;20164;-56
2022/05/27 04:37:13;;;;;;;19.05;2.80;;;9.90;99.90;;;;;;4895243;29;20044;-55
2022/05/27 04:39:40;;;;;;;11.10;2.75;;;9.80;99.90;;;;;;4895236;29;20067;-55
2022/05/27 04:42:09;;;;;;;14.88;2.92;;;9.70;99.90;;;;;;4895443;29;20059;-56
2022/05/27 04:44:37;;;;;;;18.20;2.13;;;9.70;99.90;;;;;;4896521;29;20049;-55
2022/05/27 04:47:07;;;;;;;11.82;2.15;;;9.70;99.90;;;;;;4891966;29;20956;-56
2022/05/27 04:49:51;;;;;;;14.13;2.55;;;9.70;99.90;;;;;;4873304;29;20501;-56
2022/05/27 04:52:21;;;;;;;13.90;1.98;;;9.70;99.90;;;;;;4857889;29;20053;-57
2022/05/27 04:54:49;;;;;;;19.23;2.63;;;9.70;99.90;;;;;;4873048;29;20515;-56
2022/05/27 04:57:21;;;;;;;11.32;1.95;;;9.80;99.90;;;;;;4876966;29;20056;-56
2022/05/27 04:59:49;;;;;;;15.43;2.38;;;9.80;99.90;;;;;;4896602;29;20053;-56
2022/05/27 05:02:21;;;;;;;21.48;3.38;;;9.90;99.90;;;;;;4892269;29;20049;-57
2022/05/27 05:04:50;;;;;;;13.02;1.90;;;9.90;99.90;;;;;;4876756;29;20417;-56
2022/05/27 05:07:22;;;;;;;17.75;1.95;;;9.90;99.90;;;;;;4878100;29;20052;-57
2022/05/27 05:09:50;;;;;;;11.48;1.95;;;10.00;99.90;;;;;;4881674;29;20057;-56
2022/05/27 05:12:24;;;;;;;20.65;2.67;;;10.00;99.90;;;;;;4878579;29;20048;-56
2022/05/27 05:14:53;;;;;;;13.10;2.72;;;10.00;99.90;;;;;;4894982;29;20508;-56
2022/05/27 05:17:21;;;;;;;14.37;2.43;;;10.00;99.90;;;;;;4896385;29;20049;-56
2022/05/27 05:19:53;;;;;;;9.05;2.05;;;10.00;99.90;;;;;;4878075;29;20053;-56
2022/05/27 05:22:22;;;;;;;15.82;2.25;;;10.00;99.90;;;;;;4879410;29;20045;-56
2022/05/27 05:24:55;;;;;;;9.70;2.70;;;10.00;99.90;;;;;;4896381;29;20420;-56
2022/05/27 05:27:26;;;;;;;9.75;3.03;;;10.00;99.90;;;;;;4896599;29;20052;-56
2022/05/27 05:29:56;;;;;;;16.25;3.05;;;10.00;99.90;;;;;;4897730;29;20048;-56
2022/05/27 05:32:24;;;;;;;11.05;2.05;;;10.00;99.90;;;;;;4893186;29;20049;-56
2022/05/27 05:34:58;;;;;;;12.40;1.93;;;10.00;99.90;;;;;;4893504;29;20500;-56
2022/05/27 05:37:27;;;;;;;16.27;2.47;;;10.10;99.90;;;;;;4896222;29;20048;-56
2022/05/27 05:39:54;;;;;;;21.70;3.85;;;10.10;99.90;;;;;;4897917;29;20051;-56
2022/05/27 05:42:22;;;;;;;7.05;2.13;;;10.20;99.90;;;;;;4896466;29;20072;-56
2022/05/27 05:44:50;;;;;;;15.65;2.17;;;10.20;99.90;;;;;;4897382;29;20049;-56
2022/05/27 05:47:18;;;;;;;10.40;1.75;;;10.30;99.90;;;;;;4893457;29;20130;-56
2022/05/27 05:49:47;;;;;;;12.75;1.75;;;10.30;99.90;;;;;;4875352;29;20505;-56
2022/05/27 05:52:15;;;;;;;19.48;2.30;;;10.20;99.90;;;;;;4875498;29;20064;-56
2022/05/27 05:54:43;;;;;;;15.05;2.30;;;10.20;99.90;;;;;;4890575;29;20053;-56
2022/05/27 05:57:11;;;;;;;17.85;2.08;;;10.20;99.90;;;;;;4894078;29;20049;-56
2022/05/27 05:59:39;;;;;;;19.15;2.38;;;10.20;99.90;;;;;;4894518;29;20049;-56
2022/05/27 06:02:08;;;;;;;11.95;1.90;;;10.20;99.90;;;;;;4895053;29;20497;-57
2022/05/27 06:04:36;;;;;;;12.50;1.90;;;10.20;99.90;;;;;;4896568;29;20044;-56
2022/05/27 06:07:12;;;;;;;13.27;1.73;;;10.20;99.90;;;;;;4897082;29;20060;-56
2022/05/27 06:09:41;;;;;;;18.48;2.40;;;10.20;99.90;;;;;;4895925;29;20539;-56
2022/05/27 06:12:09;;;;;;;14.50;2.58;;;10.20;99.90;;;;;;4897069;29;20055;-56
2022/05/27 06:14:37;;;;;;;9.52;1.85;;;10.20;99.90;;;;;;4896900;29;20060;-57
2022/05/27 06:17:05;;;;;;;11.32;2.13;;;10.30;99.90;;;;;;4895929;29;20056;-57
2022/05/27 06:19:32;;;;;;;10.98;2.55;;;10.20;99.90;;;;;;4882796;29;20049;-56
2022/05/27 06:22:00;;;;;;;16.63;3.30;;;10.30;99.90;;;;;;4877010;29;20045;-56
2022/05/27 06:24:28;;;;;;;14.20;1.65;;;10.30;99.90;;;;;;4892121;29;20056;-56
2022/05/27 06:26:56;;;;;;;14.30;3.13;;;10.30;99.90;;;;;;4896576;29;20542;-56
2022/05/27 06:34:56;;;;;;;14.57;1.95;;;10.40;99.90;;;;;;4879917;29;20047;-56
2022/05/27 06:37:25;;;;;;;13.20;2.10;;;10.50;99.90;;;;;;4882551;29;20037;-55
2022/05/27 06:39:53;;;;;;;27.13;3.13;;;10.60;99.90;;;;;;4895610;29;20059;-56
2022/05/27 06:42:22;;;;;;;14.43;2.65;;;10.70;99.90;;;;;;4896679;29;20055;-55
2022/05/27 06:45:08;;;;;;;8.98;1.83;;;10.80;99.90;;;;;;4895636;29;20552;-56
2022/05/27 06:47:38;;;;;;;11.38;1.65;;;10.90;99.90;;;;;;4896408;29;20049;-55
2022/05/27 06:50:08;;;;;;;17.20;3.15;;;11.00;99.90;;;;;;4895327;29;20068;-55
2022/05/27 06:52:37;;;;;;;14.03;2.50;;;11.00;99.90;;;;;;4896359;29;20045;-55
2022/05/27 06:55:05;;;;;;;14.93;2.63;;;11.00;99.90;;;;;;4896377;29;20056;-55
2022/05/27 06:57:34;;;;;;;11.55;2.47;;;11.10;99.90;;;;;;4895060;29;20764;-56
2022/05/27 07:00:05;;;;;;;14.57;3.00;;;11.10;99.90;;;;;;4895048;29;20048;-56
2022/05/27 07:02:34;;;;;;;16.35;2.78;;;11.20;99.90;;;;;;4893539;29;20055;-55
2022/05/27 07:05:02;;;;;;;10.38;2.58;;;11.30;99.90;;;;;;4887954;29;20064;-56
2022/05/27 07:07:31;;;;;;;13.73;2.30;;;11.40;99.90;;;;;;4879568;29;20059;-56
2022/05/27 07:09:58;;;;;;;14.57;2.53;;;11.60;99.90;;;;;;4894906;29;20519;-56
2022/05/27 07:12:27;;;;;;;16.80;2.13;;;11.60;99.90;;;;;;4879236;29;20082;-55
2022/05/27 07:14:55;;;;;;;12.43;2.17;;;11.70;99.90;;;;;;4895850;29;20422;-56
2022/05/27 07:17:24;;;;;;;16.20;2.38;;;11.70;99.90;;;;;;4896038;29;20501;-56
2022/05/27 07:19:51;;;;;;;9.73;1.70;;;11.80;99.90;;;;;;4882423;29;20056;-56
2022/05/27 07:22:19;;;;;;;12.13;2.25;;;11.90;99.90;;;;;;4860228;29;20387;-56
2022/05/27 07:24:47;;;;;;;10.68;2.83;;;11.90;99.90;;;;;;4893432;29;20519;-57
2022/05/27 07:27:14;;;;;;;11.10;2.03;;;12.00;99.90;;;;;;4895912;29;20515;-56
2022/05/27 07:29:42;;;;;;;8.52;2.42;;;12.00;99.90;;;;;;4894554;29;20048;-56
2022/05/27 07:32:10;;;;;;;15.55;2.35;;;12.10;99.90;;;;;;4895815;29;20049;-57
2022/05/27 07:34:39;;;;;;;9.55;1.40;;;12.10;99.90;;;;;;4890537;29;20049;-56
2022/05/27 07:37:06;;;;;;;16.50;2.58;;;12.20;99.90;;;;;;4877699;29;20049;-56
2022/05/27 07:39:34;;;;;;;9.85;2.20;;;12.20;99.90;;;;;;4895568;29;20401;-56
2022/05/27 07:42:02;;;;;;;20.33;2.53;;;12.30;99.90;;;;;;4895668;29;20499;-56
2022/05/27 07:44:29;;;;;;;14.35;2.08;;;12.40;99.90;;;;;;4895535;29;20424;-56
2022/05/27 07:46:57;;;;;;;18.23;2.50;;;12.50;99.90;;;;;;4894011;29;20048;-56
2022/05/27 07:49:25;;;;;;;7.25;1.88;;;12.60;99.90;;;;;;4886939;29;20056;-56
2022/05/27 07:52:01;;;;;;;18.48;2.05;;;12.60;99.90;;;;;;4876680;29;20063;-56
2022/05/27 07:54:29;;;;;;;16.08;2.50;;;12.60;99.90;;;;;;4889087;29;20441;-56
2022/05/27 07:56:58;;;;;;;14.20;2.85;;;12.60;99.90;;;;;;4895406;29;20056;-56
2022/05/27 07:59:26;;;;;;;10.35;2.55;;;12.70;99.90;;;;;;4895006;29;20532;-56
2022/05/27 08:01:54;;;;;;;12.50;2.75;;;12.70;99.90;;;;;;4895277;29;20048;-57
2022/05/27 08:04:22;;;;;;;11.57;1.95;;;12.70;99.90;;;;;;4888004;29;20052;-56
2022/05/27 08:06:50;;;;;;;15.57;1.90;;;12.70;99.90;;;;;;4875384;29;20049;-57
2022/05/27 08:09:18;;;;;;;9.50;1.35;;;12.70;99.90;;;;;;4893878;29;20059;-56
2022/05/27 08:11:46;;;;;;;7.82;2.10;;;12.80;99.90;;;;;;4894872;29;20079;-56
2022/05/27 08:14:14;;;;;;;13.90;2.03;;;12.80;99.90;;;;;;4893696;29;20052;-56
2022/05/27 08:16:43;;;;;;;10.73;2.25;;;12.90;99.90;;;;;;4895126;29;20540;-56
2022/05/27 08:19:10;;;;;;;19.00;2.45;;;13.00;99.90;;;;;;4890221;29;20071;-57
2022/05/27 08:21:38;;;;;;;12.48;1.52;;;13.00;99.90;;;;;;4876422;29;20064;-56
2022/05/27 08:24:09;;;;;;;18.23;3.72;;;13.00;99.90;;;;;;4886685;29;20520;-56
2022/05/27 08:26:38;;;;;;;16.83;2.55;;;13.00;99.90;;;;;;4894624;29;20076;-56
2022/05/27 08:29:07;;;;;;;16.92;2.58;;;13.00;99.90;;;;;;4891748;29;20048;-56
2022/05/27 08:31:36;;;;;;;11.43;1.85;;;13.10;99.90;;;;;;4890551;29;20052;-56
2022/05/27 08:39:42;;;;;;;10.65;2.40;;;13.20;99.90;;;;;;4882785;29;20047;-56
2022/05/27 08:42:44;;;;;;;8.48;1.15;;;13.10;99.90;;;;;;4886140;29;20053;-57
2022/05/27 08:45:21;;;;;;;16.08;1.95;;;13.00;99.90;;;;;;4885939;29;20044;-56
2022/05/27 08:47:56;;;;;;;9.32;1.50;;;13.00;99.90;;;;;;4888316;29;20048;-56
2022/05/27 08:50:24;;;;;;;9.20;1.67;;;13.00;99.90;;;;;;4878155;29;20081;-56
2022/05/27 08:52:58;;;;;;;9.32;1.67;;;13.10;99.90;;;;;;4890274;29;20052;-56
2022/05/27 09:01:40;;;;;;;10.45;1.95;;;13.40;99.90;;;;;;4891419;29;20047;-57
2022/05/27 09:04:34;;;;;;;10.85;1.88;;;13.50;99.90;;;;;;4889462;29;20052;-58
2022/05/27 09:07:36;;;;;;;7.35;1.50;;;13.70;99.90;;;;;;4879278;29;20052;-57
2022/05/27 09:10:10;;;;;;;11.45;2.30;;;13.80;99.90;;;;;;4888673;29;20048;-57
2022/05/27 09:13:10;;;;;;;4.25;1.10;;;13.90;99.90;;;;;;4874529;29;20052;-56
2022/05/27 09:15:52;;;;;;;9.10;1.73;;;14.10;99.90;;;;;;4891414;29;20532;-57
2022/05/27 09:18:20;;;;;;;22.50;2.33;;;14.20;99.90;;;;;;4889013;29;20087;-57
2022/05/27 09:21:00;;;;;;;7.93;1.30;;;14.20;99.90;;;;;;4886951;29;20477;-57
2022/05/27 09:23:47;;;;;;;7.10;1.60;;;14.30;99.90;;;;;;4890317;29;20079;-57
2022/05/27 09:26:33;;;;;;;8.65;1.60;;;14.40;99.90;;;;;;4888586;29;20519;-57
2022/05/27 09:29:19;;;;;;;7.15;1.73;;;14.30;99.90;;;;;;4890081;29;20060;-57
2022/05/27 09:31:54;;;;;;;7.28;1.33;;;14.30;99.90;;;;;;4890145;29;20052;-56
2022/05/27 09:34:27;;;;;;;7.85;1.65;;;14.30;99.90;;;;;;4888072;29;20401;-57
2022/05/27 09:36:58;;;;;;;10.00;1.80;;;14.30;99.90;;;;;;4883671;29;20048;-56
2022/05/27 09:39:27;;;;;;;11.13;1.80;;;14.40;99.90;;;;;;4887488;29;20045;-56
2022/05/27 09:42:22;;;;;;;6.32;1.60;;;14.40;99.90;;;;;;4888943;29;20056;-57
2022/05/27 09:44:55;;;;;;;16.42;2.97;;;14.20;99.90;;;;;;4889239;29;20053;-57
2022/05/27 09:47:34;;;;;;;10.18;1.10;;;14.10;99.90;;;;;;4892404;29;20053;-57
2022/05/27 09:50:07;;;;;;;10.00;1.80;;;14.00;99.90;;;;;;4886324;29;20590;-57
2022/05/27 09:52:38;;;;;;;5.68;1.80;;;14.00;99.90;;;;;;4886873;29;20053;-57
2022/05/27 09:55:23;;;;;;;20.98;2.70;;;14.00;99.90;;;;;;4897257;29;20508;-57
2022/05/27 09:57:58;;;;;;;7.28;1.55;;;14.00;99.90;;;;;;4897480;29;20059;-57
2022/05/27 10:00:35;;;;;;;10.98;1.52;;;13.90;99.90;;;;;;4895218;29;20509;-56
2022/05/27 10:03:26;;;;;;;12.10;1.85;;;13.80;99.90;;;;;;4890989;29;20056;-57
2022/05/27 10:06:04;;;;;;;11.88;1.40;;;13.70;99.90;;;;;;4885606;29;20057;-58
2022/05/27 10:08:39;;;;;;;10.50;2.20;;;13.80;99.90;;;;;;4892850;29;20055;-57
2022/05/27 10:11:27;;;;;;;4.38;1.25;;;13.80;99.90;;;;;;4895800;29;20056;-57
2022/05/27 10:14:15;;;;;;;19.65;2.45;;;14.00;99.90;;;;;;4895938;29;20559;-57
2022/05/27 10:17:10;;;;;;;15.80;1.80;;;14.10;99.90;;;;;;4891613;29;20045;-57
2022/05/27 10:19:45;;;;;;;5.85;1.10;;;14.20;99.90;;;;;;4894999;29;20048;-56
2022/05/27 10:22:28;;;;;;;4.35;0.80;;;14.30;99.90;;;;;;4877958;29;20397;-57
2022/05/27 10:25:06;;;;;;;5.38;1.65;;;14.40;99.90;;;;;;4878578;29;20048;-57
2022/05/27 10:27:37;;;;;;;11.35;1.38;;;14.50;99.90;;;;;;4879027;29;20051;-57
2022/05/27 10:30:25;;;;;;;7.88;1.20;;;14.50;99.90;;;;;;4892618;29;20051;-57
2022/05/27 10:32:54;;;;;;;12.15;2.05;;;14.60;99.90;;;;;;4893944;29;20596;-57
2022/05/27 10:35:21;;;;;;;3.95;1.00;;;14.80;99.90;;;;;;4892591;29;20041;-57
2022/05/27 10:38:13;;;;;;;10.85;1.13;;;15.10;99.90;;;;;;4893662;29;20075;-57
2022/05/27 10:40:51;;;;;;;9.65;1.83;;;15.40;99.90;;;;;;4894011;29;20054;-57
2022/05/27 10:43:41;;;;;;;8.98;1.48;;;15.70;99.70;;;;;;4893570;29;20052;-57
2022/05/27 10:46:15;;;;;;;10.40;1.05;;;15.90;97.80;;;;;;4893484;29;20052;-57
2022/05/27 10:49:03;;;;;;;18.83;3.28;;;15.80;97.00;;;;;;4893412;29;20552;-59
2022/05/27 10:51:54;;;;;;;9.50;1.40;;;15.70;96.90;;;;;;4879680;29;20138;-57
2022/05/27 10:54:42;;;;;;;12.82;3.25;;;15.60;97.80;;;;;;4885962;29;20048;-57
2022/05/27 11:03:17;;;;;;;11.57;1.20;;;15.70;97.70;;;;;;4893158;29;20049;-57
2022/05/27 11:05:47;;;;;;;3.75;1.35;;;15.80;97.50;;;;;;4886151;29;20045;-57
2022/05/27 11:08:26;;;;;;;11.75;1.35;;;15.90;97.70;;;;;;4882521;29;20056;-56
2022/05/27 11:11:19;;;;;;;5.05;0.93;;;16.10;95.90;;;;;;4876674;29;20219;-57
2022/05/27 11:17:17;;;;;;;12.60;1.45;;;16.30;93.80;;;;;;4893805;29;20493;-57
2022/05/27 11:20:09;;;;;;;12.85;1.02;;;16.40;94.90;;;;;;4889239;29;20055;-57
2022/05/27 11:23:24;;;;;;;9.05;1.20;;;16.50;94.30;;;;;;4883534;29;20173;-56
2022/05/27 11:26:09;;;;;;;9.27;1.25;;;16.50;92.50;;;;;;4895781;29;20056;-56
2022/05/27 11:29:19;;;;;;;10.65;1.08;;;16.50;92.80;;;;;;4891059;29;20052;-57
2022/05/27 11:31:55;;;;;;;7.22;1.15;;;16.40;93.60;;;;;;4891389;29;20052;-57
2022/05/27 11:34:27;;;;;;;4.38;0.70;;;16.50;94.40;;;;;;4890449;29;20496;-56
2022/05/27 11:37:29;;;;;;;11.18;1.25;;;16.60;92.50;;;;;;4888213;29;20049;-57
2022/05/27 11:40:27;;;;;;;3.35;0.60;;;16.70;91.40;;;;;;4892678;29;20071;-57
2022/05/27 11:43:06;;;;;;;7.68;1.00;;;17.00;91.50;;;;;;4891106;29;20041;-57
2022/05/27 11:45:37;;;;;;;4.15;0.73;;;17.10;88.40;;;;;;4890188;29;20053;-57
2022/05/27 11:48:06;;;;;;;7.25;0.80;;;17.10;89.10;;;;;;4890745;29;20045;-57
2022/05/27 11:50:59;;;;;;;2.53;0.50;;;17.20;89.80;;;;;;4886750;29;20539;-57
2022/05/27 11:54:00;;;;;;;4.85;0.90;;;17.40;88.10;;;;;;4888722;29;20052;-56
2022/05/27 11:56:47;;;;;;;15.75;1.25;;;17.50;88.40;;;;;;4891135;29;20048;-57
2022/05/27 11:59:37;;;;;;;10.02;1.10;;;17.80;88.00;;;;;;4875212;29;20082;-57
2022/05/27 12:02:43;;;;;;;12.50;2.85;;;17.90;89.00;;;;;;4892086;29;20052;-56
2022/05/27 12:05:16;;;;;;;5.32;0.88;;;18.10;86.80;;;;;;4860910;29;20060;-57
2022/05/27 12:07:48;;;;;;;6.93;1.02;;;18.00;82.50;;;;;;4890995;29;20049;-57
2022/05/27 12:10:50;;;;;;;5.18;1.08;;;17.80;83.00;;;;;;4890695;29;20381;-57
2022/05/27 12:13:34;;;;;;;5.00;0.70;;;17.50;83.60;;;;;;4891564;29;20052;-56
2022/05/27 12:16:19;;;;;;;8.10;0.60;;;17.40;87.50;;;;;;4891838;29;20075;-57
2022/05/27 12:18:57;;;;;;;6.35;0.90;;;17.60;84.90;;;;;;4892043;29;20056;-57
2022/05/27 12:21:31;;;;;;;17.13;2.72;;;17.90;84.50;;;;;;4891692;29;20481;-57
2022/05/27 12:24:03;;;;;;;7.65;0.80;;;18.00;83.10;;;;;;4890736;29;20052;-57
2022/05/27 12:26:35;;;;;;;6.35;0.95;;;18.20;82.20;;;;;;4891578;29;20044;-57
2022/05/27 12:29:09;;;;;;;6.32;0.75;;;18.50;83.30;;;;;;4890484;29;20049;-57
2022/05/27 12:31:38;;;;;;;7.00;1.00;;;18.70;79.80;;;;;;4890536;29;20056;-57
2022/05/27 12:34:41;;;;;;;10.13;0.75;;;18.90;82.80;;;;;;4890055;29;20053;-57
2022/05/27 12:37:12;;;;;;;3.38;0.65;;;19.10;81.10;;;;;;4851848;29;20053;-57
2022/05/27 12:39:46;;;;;;;3.03;0.60;;;19.50;80.10;;;;;;4882865;29;20056;-57
2022/05/27 12:42:39;;;;;;;4.90;0.93;;;20.00;78.10;;;;;;4872871;29;20053;-57
2022/05/27 12:45:38;;;;;;;7.95;1.05;;;20.60;75.00;;;;;;4889869;29;20048;-57
2022/05/27 12:48:07;;;;;;;3.78;0.77;;;20.80;71.00;;;;;;4872032;29;20505;-57
2022/05/27 12:50:40;;;;;;;8.20;0.83;;;20.50;67.80;;;;;;4891581;29;20052;-57
2022/05/27 12:53:18;;;;;;;5.15;1.23;;;19.90;69.30;;;;;;4891361;29;20053;-57
2022/05/27 13:01:43;;;;;;;4.22;0.70;;;19.80;71.60;;;;;;4891419;29;20056;-57
2022/05/27 13:04:46;;;;;;;2.78;0.80;;;20.10;70.10;;;;;;4891024;29;20053;-58
2022/05/27 13:07:15;;;;;;;7.68;0.70;;;20.50;72.10;;;;;;4891374;29;20575;-57
2022/05/27 13:09:46;;;;;;;8.60;1.50;;;21.00;68.30;;;;;;4883733;29;20056;-57
2022/05/27 13:12:42;;;;;;;9.18;1.30;;;21.30;68.50;;;;;;4873090;29;20053;-57
2022/05/27 13:15:24;;;;;;;7.10;0.90;;;21.70;68.80;;;;;;4889861;29;20057;-57
2022/05/27 13:18:09;;;;;;;12.65;0.90;;;21.80;65.60;;;;;;4889579;29;20063;-57
2022/05/27 13:21:04;;;;;;;6.05;1.00;;;22.40;63.80;;;;;;4894577;29;20837;-57
2022/05/27 13:23:33;;;;;;;8.20;0.80;;;22.10;63.90;;;;;;4893576;29;20063;-57
2022/05/27 13:26:51;;;;;;;8.70;1.20;;;22.20;60.70;;;;;;4893614;29;20523;-57
2022/05/27 13:29:28;;;;;;;11.27;2.00;;;22.10;63.10;;;;;;4882487;29;20068;-57
2022/05/27 13:32:00;;;;;;;8.98;1.10;;;22.40;62.10;;;;;;4894596;29;20053;-57
2022/05/27 13:34:40;;;;;;;11.52;1.30;;;22.60;60.90;;;;;;4894182;29;20858;-57
2022/05/27 13:37:34;;;;;;;21.48;1.45;;;22.70;61.50;;;;;;4894815;29;20073;-57
2022/05/27 13:40:30;;;;;;;4.68;1.10;;;22.70;61.80;;;;;;4893711;29;20053;-58
2022/05/27 13:43:05;;;;;;;11.85;1.23;;;23.00;61.40;;;;;;4894513;29;20049;-59
2022/05/27 13:45:39;;;;;;;19.25;1.75;;;22.80;59.90;;;;;;4894580;29;20057;-58
2022/05/27 13:48:32;;;;;;;18.38;1.45;;;22.50;60.90;;;;;;4895194;29;20056;-58
2022/05/27 13:51:11;;;;;;;10.60;1.80;;;22.10;62.20;;;;;;4897554;29;20053;-58
2022/05/27 13:53:41;;;;;;;16.73;1.95;;;21.60;61.90;;;;;;4897417;29;20059;-58
2022/05/27 13:56:21;;;;;;;16.40;2.25;;;21.00;62.90;;;;;;4896421;29;20053;-58
2022/05/27 13:58:58;;;;;;;7.70;1.70;;;20.60;64.10;;;;;;4897534;29;20048;-58
2022/05/27 14:01:44;;;;;;;9.40;1.10;;;20.40;65.50;;;;;;4897524;29;20048;-58